createdAt,value
2022-10-14T00:01:45.415Z,98.28
2022-10-14T00:04:11.990Z,98.77
2022-10-14T00:06:38.649Z,98.79
2022-10-14T00:09:08.783Z,98.56
2022-10-14T00:11:37.313Z,98.70
2022-10-14T00:14:08.329Z,98.24
2022-10-14T00:16:37.373Z,98.34
2022-10-14T00:19:05.336Z,98.20
2022-10-14T00:21:33.206Z,98.23
2022-10-14T00:23:59.937Z,98.55
2022-10-14T00:26:32.203Z,98.53
2022-10-14T00:29:00.157Z,99.76
2022-10-14T00:31:27.816Z,99.91
2022-10-14T00:33:55.923Z,100.00
2022-10-14T00:36:24.452Z,99.85
2022-10-14T00:38:52.849Z,100.00
2022-10-14T00:41:40.093Z,99.77
2022-10-14T00:44:15.795Z,100.00
2022-10-14T00:46:44.757Z,100.00
2022-10-14T00:49:20.551Z,99.79
2022-10-14T00:51:52.535Z,99.96
2022-10-14T00:54:23.930Z,100.00
2022-10-14T00:56:52.026Z,100.00
2022-10-14T00:59:18.969Z,100.00
2022-10-14T01:01:45.611Z,99.92
2022-10-14T01:04:12.229Z,99.72
2022-10-14T01:07:23.288Z,100.00
2022-10-14T01:10:07.361Z,100.00
2022-10-14T01:12:46.116Z,100.00
2022-10-14T01:15:26.256Z,99.91
2022-10-14T01:18:06.312Z,100.00
2022-10-14T01:20:41.884Z,100.00
2022-10-14T01:23:26.824Z,100.00
2022-10-14T01:26:26.391Z,100.00
2022-10-14T01:29:11.165Z,100.00
2022-10-14T01:31:45.005Z,100.00
2022-10-14T01:34:13.843Z,100.00
2022-10-14T01:36:49.235Z,100.00
2022-10-14T01:39:25.155Z,100.00
2022-10-14T01:42:06.461Z,100.00
2022-10-14T01:44:35.439Z,100.00
2022-10-14T01:47:03.401Z,100.00
2022-10-14T01:49:36.101Z,99.98
2022-10-14T01:52:09.078Z,100.00
2022-10-14T01:54:41.667Z,99.92
2022-10-14T01:57:14.289Z,99.66
2022-10-14T01:59:41.901Z,99.48
2022-10-14T02:02:08.572Z,99.65
2022-10-14T02:04:35.203Z,99.54
2022-10-14T02:07:04.636Z,99.39
2022-10-14T02:09:43.070Z,99.40
2022-10-14T02:12:22.095Z,99.22
2022-10-14T02:14:48.945Z,99.72
2022-10-14T02:17:18.577Z,99.16
2022-10-14T02:20:01.430Z,99.25
2022-10-14T02:22:34.045Z,99.13
2022-10-14T02:25:07.610Z,99.01
2022-10-14T02:27:35.552Z,99.31
2022-10-14T02:30:04.878Z,98.97
2022-10-14T02:32:32.473Z,99.28
2022-10-14T02:35:00.288Z,98.87
2022-10-14T02:37:29.768Z,98.77
2022-10-14T02:40:03.288Z,99.00
2022-10-14T02:42:29.917Z,98.94
2022-10-14T02:44:59.208Z,98.90
2022-10-14T02:47:26.265Z,98.81
2022-10-14T02:49:53.521Z,98.59
2022-10-14T02:52:20.647Z,98.42
2022-10-14T02:54:47.489Z,98.64
2022-10-14T02:57:14.065Z,98.67
2022-10-14T02:59:40.785Z,98.84
2022-10-14T03:02:07.930Z,98.93
2022-10-14T03:04:35.146Z,98.39
2022-10-14T03:07:01.985Z,98.63
2022-10-14T03:09:28.568Z,98.24
2022-10-14T03:11:55.148Z,98.02
2022-10-14T03:14:21.757Z,97.65
2022-10-14T03:16:49.032Z,97.81
2022-10-14T03:19:15.944Z,97.43
2022-10-14T03:21:42.479Z,97.54
2022-10-14T03:24:09.960Z,97.10
2022-10-14T03:26:36.676Z,97.59
2022-10-14T03:29:03.341Z,97.28
2022-10-14T03:31:29.929Z,96.84
2022-10-14T03:33:56.488Z,96.66
2022-10-14T03:36:23.570Z,95.92
2022-10-14T03:38:50.265Z,96.10
2022-10-14T03:41:16.890Z,96.68
2022-10-14T03:43:43.510Z,96.29
2022-10-14T03:46:10.170Z,96.37
2022-10-14T03:48:36.757Z,95.98
2022-10-14T03:51:03.578Z,96.19
2022-10-14T03:53:30.203Z,96.29
2022-10-14T03:55:56.768Z,96.98
2022-10-14T03:58:23.359Z,96.50
2022-10-14T04:00:49.937Z,96.37
2022-10-14T04:03:16.467Z,97.55
2022-10-14T04:05:43.483Z,96.82
2022-10-14T04:08:10.134Z,97.18
2022-10-14T04:10:36.762Z,97.39
2022-10-14T04:13:03.596Z,97.01
2022-10-14T04:15:30.541Z,97.22
2022-10-14T04:17:57.132Z,97.28
2022-10-14T04:20:23.770Z,96.95
2022-10-14T04:22:50.363Z,97.04
2022-10-14T04:25:17.008Z,97.29
2022-10-14T04:27:43.655Z,97.56
2022-10-14T04:30:10.745Z,97.66
2022-10-14T04:32:37.300Z,97.92
2022-10-14T04:35:05.379Z,98.46
2022-10-14T04:37:32.071Z,98.30
2022-10-14T04:39:58.614Z,98.59
2022-10-14T04:42:25.383Z,98.98
2022-10-14T04:44:52.497Z,98.86
2022-10-14T04:47:19.052Z,99.13
2022-10-14T04:49:45.628Z,98.74
2022-10-14T04:52:12.376Z,99.42
2022-10-14T04:54:38.980Z,99.25
2022-10-14T04:57:05.552Z,99.85
2022-10-14T04:59:32.160Z,100.00
2022-10-14T05:01:58.796Z,100.00
2022-10-14T05:04:25.365Z,100.00
2022-10-14T05:06:51.952Z,100.00
2022-10-14T05:09:18.499Z,99.70
2022-10-14T05:11:45.052Z,99.59
2022-10-14T05:14:11.621Z,99.71
2022-10-14T05:16:38.200Z,99.79
2022-10-14T05:19:04.840Z,99.91
2022-10-14T05:21:31.447Z,100.00
2022-10-14T05:23:58.012Z,100.00
2022-10-14T05:26:24.594Z,99.80
2022-10-14T05:28:54.326Z,100.00
2022-10-14T05:31:21.005Z,100.00
2022-10-14T05:33:47.621Z,100.00
2022-10-14T05:36:14.227Z,99.76
2022-10-14T05:38:40.868Z,99.36
2022-10-14T05:41:07.420Z,99.37
2022-10-14T05:43:34.037Z,99.01
2022-10-14T05:46:00.894Z,98.44
2022-10-14T05:48:27.665Z,98.51
2022-10-14T05:50:54.406Z,99.04
2022-10-14T05:53:21.057Z,98.95
2022-10-14T05:55:47.664Z,98.96
2022-10-14T05:58:14.454Z,98.36
2022-10-14T06:00:41.135Z,98.19
2022-10-14T06:03:13.297Z,98.40
2022-10-14T06:05:40.057Z,98.21
2022-10-14T06:08:06.803Z,98.43
2022-10-14T06:10:35.332Z,98.02
2022-10-14T06:13:02.516Z,97.96
2022-10-14T06:15:29.157Z,98.24
2022-10-14T06:17:56.151Z,98.40
2022-10-14T06:20:22.842Z,98.60
2022-10-14T06:22:49.366Z,98.43
2022-10-14T06:25:15.966Z,98.03
2022-10-14T06:27:42.656Z,97.77
2022-10-14T06:30:32.617Z,97.66
2022-10-14T06:32:59.182Z,97.72
2022-10-14T06:35:25.837Z,97.49
2022-10-14T06:37:52.653Z,97.29
2022-10-14T06:40:19.794Z,98.16
2022-10-14T06:42:46.461Z,98.40
2022-10-14T06:45:13.243Z,98.65
2022-10-14T06:47:40.048Z,98.44
2022-10-14T06:50:07.276Z,98.69
2022-10-14T06:52:33.980Z,98.35
2022-10-14T06:55:03.340Z,97.97
2022-10-14T06:57:30.054Z,98.16
2022-10-14T06:59:57.958Z,97.72
2022-10-14T07:02:25.066Z,97.21
2022-10-14T07:04:51.942Z,96.72
2022-10-14T07:07:18.593Z,96.74
2022-10-14T07:09:45.219Z,95.80
2022-10-14T07:12:11.779Z,96.09
2022-10-14T07:14:38.482Z,95.14
2022-10-14T07:17:05.152Z,95.40
2022-10-14T07:19:31.759Z,95.38
2022-10-14T07:21:58.379Z,94.56
2022-10-14T07:24:25.722Z,94.70
2022-10-14T07:26:52.685Z,93.80
2022-10-14T07:29:19.352Z,93.32
2022-10-14T07:31:45.885Z,93.63
2022-10-14T07:34:12.500Z,93.30
2022-10-14T07:36:39.107Z,92.38
2022-10-14T07:39:06.474Z,93.38
2022-10-14T07:41:33.925Z,92.94
2022-10-14T07:44:06.044Z,92.69
2022-10-14T07:46:34.734Z,92.97
2022-10-14T07:49:02.715Z,92.67
2022-10-14T07:51:29.833Z,92.73
2022-10-14T07:53:58.840Z,93.62
2022-10-14T07:56:25.636Z,93.10
2022-10-14T07:58:53.286Z,92.88
2022-10-14T08:01:20.097Z,93.29
2022-10-14T08:03:48.033Z,93.60
2022-10-14T08:06:15.385Z,93.50
2022-10-14T08:08:43.512Z,94.18
2022-10-14T08:11:14.013Z,94.00
2022-10-14T08:13:45.037Z,95.32
2022-10-14T08:16:19.015Z,95.44
2022-10-14T08:18:46.665Z,95.39
2022-10-14T08:21:14.027Z,95.81
2022-10-14T08:23:40.912Z,97.23
2022-10-14T08:26:35.153Z,97.40
2022-10-14T08:29:08.326Z,97.71
2022-10-14T08:31:35.035Z,97.85
2022-10-14T08:34:01.981Z,98.58
2022-10-14T08:36:29.045Z,98.69
2022-10-14T08:38:55.754Z,98.28
2022-10-14T08:41:51.995Z,97.40
2022-10-14T08:44:23.237Z,97.85
2022-10-14T08:46:59.453Z,97.27
2022-10-14T08:49:47.443Z,96.00
2022-10-14T08:52:27.852Z,96.37
2022-10-14T08:55:14.912Z,96.17
2022-10-14T08:58:08.915Z,96.29
2022-10-14T09:00:40.391Z,96.27
2022-10-14T09:03:16.377Z,95.34
2022-10-14T09:05:43.253Z,95.28
2022-10-14T09:08:16.157Z,94.91
2022-10-14T09:10:44.307Z,94.56
2022-10-14T09:13:25.645Z,94.03
2022-10-14T09:16:02.150Z,93.56
2022-10-14T09:18:35.144Z,94.43
2022-10-14T09:21:04.182Z,94.75
2022-10-14T09:23:30.820Z,93.03
2022-10-14T09:26:00.144Z,93.97
2022-10-14T09:28:38.367Z,93.92
2022-10-14T09:31:08.120Z,92.85
2022-10-14T09:33:42.176Z,91.98
2022-10-14T09:36:20.839Z,92.84
2022-10-14T09:38:53.552Z,92.70
2022-10-14T09:41:32.102Z,92.68
2022-10-14T09:44:18.752Z,91.10
2022-10-14T09:46:55.723Z,89.89
2022-10-14T09:49:51.990Z,90.87
2022-10-14T09:52:24.945Z,90.26
2022-10-14T09:55:00.858Z,89.86
2022-10-14T09:57:28.094Z,89.91
2022-10-14T10:00:04.207Z,89.59
2022-10-14T10:02:42.325Z,88.65
2022-10-14T10:05:27.244Z,89.38
2022-10-14T10:08:17.484Z,88.37
2022-10-14T10:11:28.331Z,86.77
2022-10-14T10:13:55.423Z,86.98
2022-10-14T10:16:32.823Z,86.35
2022-10-14T10:19:19.916Z,87.68
2022-10-14T10:21:47.634Z,85.76
2022-10-14T10:24:26.058Z,85.85
2022-10-14T10:26:55.327Z,86.06
2022-10-14T10:29:31.844Z,85.84
2022-10-14T10:32:17.668Z,83.83
2022-10-14T10:34:46.958Z,85.26
2022-10-14T10:37:37.158Z,82.46
2022-10-14T10:40:20.239Z,81.71
2022-10-14T10:43:05.504Z,81.25
2022-10-14T10:45:39.941Z,79.74
2022-10-14T10:48:26.848Z,80.21
2022-10-14T10:51:09.738Z,78.82
2022-10-14T10:54:13.411Z,78.91
2022-10-14T10:56:51.777Z,78.88
2022-10-14T10:59:24.334Z,79.09
2022-10-14T11:02:04.561Z,79.15
2022-10-14T11:04:45.329Z,79.78
2022-10-14T11:08:08.638Z,79.17
2022-10-14T11:10:59.769Z,78.20
2022-10-14T11:13:55.608Z,78.23
2022-10-14T11:16:42.759Z,77.39
2022-10-14T11:19:18.753Z,77.88
2022-10-14T11:22:09.713Z,78.88
2022-10-14T11:25:00.440Z,77.80
2022-10-14T11:27:36.219Z,77.20
2022-10-14T11:30:17.353Z,77.23
2022-10-14T11:33:05.700Z,77.72
2022-10-14T11:35:46.228Z,77.76
2022-10-14T11:38:31.191Z,77.89
2022-10-14T11:41:06.793Z,77.35
2022-10-14T11:43:48.164Z,77.28
2022-10-14T11:46:20.830Z,77.24
2022-10-14T11:49:02.726Z,76.81
2022-10-14T11:51:37.892Z,76.66
2022-10-14T11:54:17.345Z,77.30
2022-10-14T11:56:59.638Z,76.99
2022-10-14T11:59:43.111Z,77.60
2022-10-14T12:02:26.617Z,77.63
2022-10-14T12:05:07.357Z,77.94
2022-10-14T12:07:42.408Z,78.21
2022-10-14T12:10:26.960Z,76.86
2022-10-14T12:12:54.917Z,78.72
2022-10-14T12:15:24.675Z,78.66
2022-10-14T12:17:55.976Z,77.63
2022-10-14T12:20:44.954Z,77.54
2022-10-14T12:23:19.624Z,76.22
2022-10-14T12:26:01.460Z,76.63
2022-10-14T12:28:28.811Z,76.50
2022-10-14T12:31:21.450Z,75.76
2022-10-14T12:34:15.592Z,75.62
2022-10-14T12:36:50.780Z,75.59
2022-10-14T12:39:17.554Z,73.84
2022-10-14T12:41:56.268Z,75.04
2022-10-14T12:44:28.161Z,75.25
2022-10-14T12:46:54.843Z,75.67
2022-10-14T12:49:24.387Z,75.26
2022-10-14T12:51:56.476Z,74.39
2022-10-14T12:54:24.743Z,74.46
2022-10-14T12:57:00.439Z,75.03
2022-10-14T12:59:36.663Z,75.43
2022-10-14T13:02:25.334Z,74.65
2022-10-14T13:04:55.302Z,74.39
2022-10-14T13:07:48.788Z,74.45
2022-10-14T13:10:46.952Z,74.55
2022-10-14T13:13:38.770Z,74.53
2022-10-14T13:16:06.921Z,75.20
2022-10-14T13:18:49.518Z,74.74
2022-10-14T13:21:34.382Z,74.32
2022-10-14T13:24:22.519Z,75.22
2022-10-14T13:26:55.159Z,74.89
2022-10-14T13:29:51.481Z,74.57
2022-10-14T13:32:37.432Z,74.08
2022-10-14T13:35:13.301Z,73.14
2022-10-14T13:37:52.030Z,74.23
2022-10-14T13:40:31.783Z,72.92
2022-10-14T13:43:01.194Z,73.94
2022-10-14T13:45:35.978Z,72.79
2022-10-14T13:48:05.221Z,73.01
2022-10-14T13:50:36.975Z,73.58
2022-10-14T13:53:09.756Z,72.21
2022-10-14T13:55:49.059Z,70.30
2022-10-14T13:58:21.303Z,71.02
2022-10-14T14:01:04.443Z,72.09
2022-10-14T14:03:43.374Z,71.46
2022-10-14T14:06:19.273Z,72.36
2022-10-14T14:08:52.717Z,70.96
2022-10-14T14:11:31.563Z,70.81
2022-10-14T14:14:17.266Z,71.79
2022-10-14T14:16:53.442Z,72.08
2022-10-14T14:19:27.250Z,72.61
2022-10-14T14:22:14.873Z,73.21
2022-10-14T14:24:41.839Z,74.11
2022-10-14T14:27:19.950Z,73.43
2022-10-14T14:29:49.588Z,73.85
2022-10-14T14:32:20.978Z,73.91
2022-10-14T14:34:50.160Z,74.32
2022-10-14T14:37:47.809Z,74.45
2022-10-14T14:40:16.537Z,74.85
2022-10-14T14:42:44.150Z,74.98
2022-10-14T14:45:21.011Z,74.32
2022-10-14T14:47:50.119Z,75.02
2022-10-14T14:50:35.673Z,74.93
2022-10-14T14:53:16.474Z,75.78
2022-10-14T14:56:05.141Z,75.30
2022-10-14T14:58:35.963Z,76.22
2022-10-14T15:01:03.043Z,76.50
2022-10-14T15:03:33.976Z,76.95
2022-10-14T15:06:03.576Z,77.22
2022-10-14T15:08:39.615Z,77.90
2022-10-14T15:11:06.507Z,77.31
2022-10-14T15:13:44.564Z,77.51
2022-10-14T15:16:11.567Z,77.19
2022-10-14T15:18:41.068Z,76.75
2022-10-14T15:21:19.502Z,76.30
2022-10-14T15:23:48.899Z,77.23
2022-10-14T15:26:35.020Z,77.55
2022-10-14T15:29:10.630Z,78.42
2022-10-14T15:31:39.394Z,77.76
2022-10-14T15:34:11.998Z,77.78
2022-10-14T15:36:38.702Z,77.76
2022-10-14T15:39:05.444Z,77.76
2022-10-14T15:41:32.063Z,78.02
2022-10-14T15:43:58.672Z,78.02
2022-10-14T15:46:44.033Z,77.46
2022-10-14T15:49:17.117Z,78.31
2022-10-14T15:51:43.805Z,78.06
2022-10-14T15:54:13.576Z,78.21
2022-10-14T15:56:40.450Z,78.24
2022-10-14T15:59:07.154Z,78.31
2022-10-14T16:01:38.022Z,78.38
2022-10-14T16:04:04.778Z,78.74
2022-10-14T16:06:32.649Z,78.46
2022-10-14T16:08:59.343Z,78.94
2022-10-14T16:11:28.851Z,78.76
2022-10-14T16:13:56.130Z,79.05
2022-10-14T16:16:32.354Z,81.38
2022-10-14T16:19:02.527Z,82.64
2022-10-14T16:21:33.376Z,83.41
2022-10-14T16:24:01.386Z,85.95
2022-10-14T16:26:29.324Z,86.49
2022-10-14T16:28:56.118Z,88.58
2022-10-14T16:31:23.319Z,88.08
2022-10-14T16:33:50.968Z,87.78
2022-10-14T16:36:17.779Z,87.89
2022-10-14T16:38:44.641Z,88.62
2022-10-14T16:41:12.107Z,90.59
2022-10-14T16:43:39.174Z,90.12
2022-10-14T16:46:10.355Z,91.29
2022-10-14T16:48:38.854Z,91.03
2022-10-14T16:51:05.932Z,90.57
2022-10-14T16:53:41.615Z,91.25
2022-10-14T16:56:31.757Z,89.95
2022-10-14T16:58:59.299Z,89.73
2022-10-14T17:01:26.078Z,91.19
2022-10-14T17:03:55.766Z,90.60
2022-10-14T17:06:24.257Z,91.66
2022-10-14T17:08:51.794Z,92.85
2022-10-14T17:11:19.140Z,92.61
2022-10-14T17:13:45.817Z,92.15
2022-10-14T17:16:12.817Z,93.33
2022-10-14T17:18:39.561Z,94.12
2022-10-14T17:21:13.849Z,95.66
2022-10-14T17:23:42.484Z,96.82
2022-10-14T17:26:12.082Z,97.84
2022-10-14T17:28:39.741Z,98.55
2022-10-14T17:31:10.117Z,97.73
2022-10-14T17:33:40.758Z,98.46
2022-10-14T17:36:08.314Z,99.07
2022-10-14T17:38:35.951Z,99.10
2022-10-14T17:41:07.997Z,98.85
2022-10-14T17:43:35.350Z,98.98
2022-10-14T17:46:11.863Z,99.10
2022-10-14T17:48:42.370Z,99.08
2022-10-14T17:51:13.291Z,99.13
2022-10-14T17:53:40.225Z,99.27
2022-10-14T17:56:12.079Z,98.56
2022-10-14T17:58:39.645Z,99.90
2022-10-14T18:01:09.167Z,99.58
2022-10-14T18:03:38.865Z,99.04
2022-10-14T18:06:11.307Z,100.00
2022-10-14T18:08:38.494Z,99.56
2022-10-14T18:11:10.853Z,99.78
2022-10-14T18:13:37.833Z,100.00
2022-10-14T18:16:09.641Z,100.00
2022-10-14T18:18:36.492Z,99.80
2022-10-14T18:21:04.546Z,100.00
2022-10-14T18:23:33.387Z,100.00
2022-10-14T18:26:13.311Z,100.00
2022-10-14T18:28:42.916Z,100.00
2022-10-14T18:31:11.194Z,100.00
2022-10-14T18:33:39.206Z,100.00
2022-10-14T18:36:07.363Z,100.00
2022-10-14T18:38:34.875Z,100.00
2022-10-14T18:41:11.319Z,100.00
2022-10-14T18:43:37.885Z,100.00
2022-10-14T18:46:05.867Z,100.00
2022-10-14T18:48:32.716Z,100.00
2022-10-14T18:51:00.929Z,100.00
2022-10-14T18:53:31.196Z,100.00
2022-10-14T18:56:00.943Z,100.00
2022-10-14T18:58:28.399Z,100.00
2022-10-14T19:00:55.066Z,100.00
2022-10-14T19:03:21.770Z,100.00
2022-10-14T19:05:48.400Z,100.00
2022-10-14T19:08:15.273Z,100.00
2022-10-14T19:10:41.900Z,100.00
2022-10-14T19:13:09.245Z,100.00
2022-10-14T19:15:45.319Z,100.00
2022-10-14T19:18:14.526Z,100.00
2022-10-14T19:20:41.907Z,100.00
2022-10-14T19:23:08.923Z,100.00
2022-10-14T19:25:36.288Z,100.00
2022-10-14T19:28:02.958Z,100.00
2022-10-14T19:30:29.548Z,100.00
2022-10-14T19:32:56.076Z,100.00
2022-10-14T19:35:22.749Z,100.00
2022-10-14T19:37:49.339Z,100.00
2022-10-14T19:40:19.809Z,100.00
2022-10-14T19:42:49.396Z,100.00
2022-10-14T19:45:16.051Z,100.00
2022-10-14T19:47:42.769Z,100.00
2022-10-14T19:50:09.857Z,100.00
2022-10-14T19:52:36.513Z,100.00
2022-10-14T19:55:03.552Z,100.00
2022-10-14T19:57:30.129Z,100.00
2022-10-14T19:59:56.693Z,100.00
2022-10-14T20:02:23.248Z,100.00
2022-10-14T20:04:49.877Z,100.00
2022-10-14T20:07:16.585Z,100.00
2022-10-14T20:09:43.166Z,100.00
2022-10-14T20:12:09.759Z,100.00
2022-10-14T20:14:36.310Z,100.00
2022-10-14T20:17:03.800Z,100.00
2022-10-14T20:19:30.662Z,100.00
2022-10-14T20:21:57.234Z,100.00
2022-10-14T20:24:24.004Z,100.00
2022-10-14T20:26:51.035Z,100.00
2022-10-14T20:29:17.757Z,100.00
2022-10-14T20:31:44.387Z,100.00
2022-10-14T20:34:11.471Z,100.00
2022-10-14T20:36:38.134Z,100.00
2022-10-14T20:39:04.852Z,100.00
2022-10-14T20:41:31.404Z,100.00
2022-10-14T20:43:57.971Z,100.00
2022-10-14T20:46:25.341Z,100.00
2022-10-14T20:48:57.458Z,100.00
2022-10-14T20:51:24.508Z,100.00
2022-10-14T20:54:00.472Z,100.00
2022-10-14T20:56:31.308Z,100.00
2022-10-14T20:58:59.135Z,100.00
2022-10-14T21:01:27.538Z,100.00
2022-10-14T21:03:55.241Z,100.00
2022-10-14T21:06:23.629Z,100.00
2022-10-14T21:08:51.477Z,100.00
2022-10-14T21:11:21.099Z,100.00
2022-10-14T21:13:50.140Z,100.00
2022-10-14T21:16:20.185Z,100.00
2022-10-14T21:18:53.706Z,100.00
2022-10-14T21:21:26.661Z,100.00
2022-10-14T21:23:53.767Z,100.00
2022-10-14T21:26:20.699Z,100.00
2022-10-14T21:28:47.355Z,100.00
2022-10-14T21:31:17.520Z,100.00
2022-10-14T21:33:45.904Z,100.00
2022-10-14T21:36:14.139Z,100.00
2022-10-14T21:38:41.258Z,100.00
2022-10-14T21:41:08.085Z,100.00
2022-10-14T21:43:36.708Z,100.00
2022-10-14T21:46:08.427Z,100.00
2022-10-14T21:48:34.992Z,100.00
2022-10-14T21:51:16.063Z,100.00
2022-10-14T21:53:44.441Z,100.00
2022-10-14T21:56:13.148Z,100.00
2022-10-14T21:58:40.280Z,100.00
2022-10-14T22:01:10.332Z,100.00
2022-10-14T22:03:38.368Z,100.00
2022-10-14T22:06:08.083Z,100.00
2022-10-14T22:08:36.881Z,100.00
2022-10-14T22:11:05.093Z,100.00
2022-10-14T22:13:32.392Z,100.00
2022-10-14T22:15:58.891Z,100.00
2022-10-14T22:18:25.473Z,100.00
2022-10-14T22:21:00.915Z,100.00
2022-10-14T22:23:27.498Z,100.00
2022-10-14T22:25:54.093Z,100.00
2022-10-14T22:28:20.712Z,100.00
2022-10-14T22:30:47.293Z,100.00
2022-10-14T22:33:13.791Z,100.00
2022-10-14T22:35:40.337Z,100.00
2022-10-14T22:38:07.047Z,100.00
2022-10-14T22:40:34.758Z,100.00
2022-10-14T22:43:01.339Z,100.00
2022-10-14T22:45:27.950Z,100.00
2022-10-14T22:47:54.568Z,100.00
2022-10-14T22:50:21.149Z,100.00
2022-10-14T22:52:47.744Z,100.00
2022-10-14T22:55:14.292Z,100.00
2022-10-14T22:57:41.076Z,100.00
2022-10-14T23:00:08.403Z,100.00
2022-10-14T23:02:35.035Z,100.00
2022-10-14T23:05:01.605Z,100.00
2022-10-14T23:07:29.300Z,100.00
2022-10-14T23:09:56.093Z,100.00
2022-10-14T23:12:22.872Z,100.00
2022-10-14T23:14:51.310Z,100.00
2022-10-14T23:17:17.913Z,100.00
2022-10-14T23:19:46.273Z,100.00
2022-10-14T23:22:12.812Z,100.00
2022-10-14T23:24:39.369Z,100.00
2022-10-14T23:27:05.909Z,100.00
2022-10-14T23:29:32.436Z,100.00
2022-10-14T23:31:59.075Z,100.00
2022-10-14T23:34:25.646Z,100.00
2022-10-14T23:36:52.166Z,100.00
2022-10-14T23:39:18.804Z,100.00
2022-10-14T23:41:45.394Z,100.00
2022-10-14T23:44:12.347Z,100.00
2022-10-14T23:46:38.934Z,100.00
2022-10-14T23:49:21.173Z,100.00
2022-10-14T23:51:51.883Z,100.00
2022-10-14T23:54:18.462Z,100.00
2022-10-14T23:56:45.092Z,100.00
2022-10-14T23:59:11.746Z,100.00
